Time;durP1;ratioP1;P1;durP2;ratioP2;P2;SDS_P1;SDS_P2;PMS_P1;PMS_P2;Temp;Humidity;BMP_temperature;BMP_pressure;BME280_temperature;BME280_humidity;BME280_pressure;Samples;Min_cycle;Max_cycle;Signal;HPM_P1;HPM_P2
2021/10/17 00:01:05;;;;;;;14.68;8.10;;;;;;;5.88;100.00;96696.41;5039113;28;20066;-60
2021/10/17 00:03:34;;;;;;;13.02;8.65;;;;;;;6.06;100.00;96687.28;5044556;28;20060;-60
2021/10/17 00:06:03;;;;;;;12.40;8.85;;;;;;;6.24;100.00;96687.72;5050537;28;20142;-59
2021/10/17 00:08:32;;;;;;;12.00;7.15;;;;;;;6.11;100.00;96693.00;5049127;28;21349;-59
2021/10/17 00:11:01;;;;;;;11.73;8.63;;;;;;;6.24;100.00;96692.13;5049178;28;20080;-59
2021/10/17 00:13:29;;;;;;;11.93;7.30;;;;;;;6.25;100.00;96691.19;5043649;28;20077;-57
2021/10/17 00:15:58;;;;;;;10.27;8.70;;;;;;;6.08;100.00;96687.16;5037235;28;20060;-59
2021/10/17 00:18:26;;;;;;;11.63;6.97;;;;;;;6.26;100.00;96687.59;5045525;28;22772;-58
2021/10/17 00:20:55;;;;;;;11.90;7.60;;;;;;;6.04;100.00;96691.78;5052036;28;20115;-59
2021/10/17 00:23:25;;;;;;;10.98;7.53;;;;;;;6.12;100.00;96693.84;5040437;28;20079;-59
2021/10/17 00:25:53;;;;;;;20.42;8.27;;;;;;;6.07;100.00;96694.19;5054705;28;20076;-59
2021/10/17 00:28:22;;;;;;;22.92;7.47;;;;;;;6.38;100.00;96699.81;5040549;28;20069;-59
2021/10/17 00:30:50;;;;;;;17.20;7.88;;;;;;;6.12;100.00;96702.53;5037169;28;20075;-59
2021/10/17 00:33:19;;;;;;;21.67;8.27;;;;;;;5.85;100.00;96707.09;5043686;28;20084;-59
2021/10/17 00:35:47;;;;;;;17.13;8.00;;;;;;;6.03;100.00;96705.00;5052027;28;20076;-59
2021/10/17 00:38:17;;;;;;;23.77;9.55;;;;;;;6.13;100.00;96706.00;5046709;28;20073;-59
2021/10/17 00:40:48;;;;;;;25.50;8.10;;;;;;;6.26;100.00;96712.00;5038467;28;20085;-60
2021/10/17 00:43:16;;;;;;;21.00;7.97;;;;;;;6.38;100.00;96711.13;5039763;28;20072;-59
2021/10/17 00:45:45;;;;;;;27.33;9.10;;;;;;;6.38;100.00;96715.53;5026192;28;20068;-58
2021/10/17 00:48:13;;;;;;;21.42;8.13;;;;;;;6.52;100.00;96706.66;5037556;28;20093;-61
2021/10/17 00:50:41;;;;;;;17.63;6.90;;;;;;;6.13;100.00;96714.69;5041954;28;20091;-60
2021/10/17 00:53:10;;;;;;;20.98;7.90;;;;;;;6.21;100.00;96708.06;5036630;28;20527;-60
2021/10/17 00:55:38;;;;;;;22.90;7.55;;;;;;;5.96;100.00;96712.47;5045234;28;20092;-61
2021/10/17 00:58:22;;;;;;;20.95;8.40;;;;;;;5.87;100.00;96711.28;5039794;28;20083;-60
2021/10/17 01:00:51;;;;;;;18.33;7.85;;;;;;;6.11;100.00;96719.19;5042811;28;20570;-60
2021/10/17 01:03:20;;;;;;;19.17;6.95;;;;;;;6.09;100.00;96712.38;5050528;28;20088;-61
2021/10/17 01:05:49;;;;;;;12.40;6.78;;;;;;;6.33;100.00;96702.78;5047995;28;20087;-59
2021/10/17 01:08:18;;;;;;;11.30;6.30;;;;;;;6.01;100.00;96712.13;5047190;28;20084;-60
2021/10/17 01:10:47;;;;;;;16.88;7.43;;;;;;;6.00;100.00;96710.44;5047090;28;20484;-59
2021/10/17 01:13:16;;;;;;;11.90;7.65;;;;;;;6.34;100.00;96699.19;5031602;28;20065;-60
2021/10/17 01:15:50;;;;;;;13.88;7.63;;;;;;;6.26;100.00;96695.44;5026278;28;20076;-61
2021/10/17 01:18:19;;;;;;;13.75;7.30;;;;;;;6.24;100.00;96686.91;5048253;28;20444;-61
2021/10/17 01:20:50;;;;;;;14.43;7.43;;;;;;;6.23;100.00;96677.34;5050009;28;20071;-60
2021/10/17 01:23:20;;;;;;;18.73;8.43;;;;;;;5.72;100.00;96683.59;5017858;28;20446;-60
2021/10/17 01:25:49;;;;;;;12.82;7.90;;;;;;;6.05;100.00;96679.53;5042065;28;20087;-59
2021/10/17 01:28:17;;;;;;;15.63;8.27;;;;;;;6.14;100.00;96671.84;5044726;28;20057;-60
2021/10/17 01:30:47;;;;;;;13.45;8.48;;;;;;;5.92;100.00;96667.34;5045959;28;20053;-60
2021/10/17 01:33:15;;;;;;;13.43;7.78;;;;;;;5.94;100.00;96668.06;5047879;28;20068;-55
2021/10/17 01:35:44;;;;;;;19.40;8.25;;;;;;;6.21;100.00;96669.63;5035833;28;20488;-59
2021/10/17 01:38:14;;;;;;;15.48;7.93;;;;;;;5.76;100.00;96673.75;5030606;28;20068;-57
2021/10/17 01:40:42;;;;;;;17.15;8.30;;;;;;;5.72;100.00;96679.19;5014725;28;20077;-60
2021/10/17 01:43:11;;;;;;;18.33;7.22;;;;;;;5.92;100.00;96671.72;5025616;28;20547;-57
2021/10/17 01:45:39;;;;;;;18.45;8.52;;;;;;;5.62;100.00;96674.75;5046235;28;20060;-60
2021/10/17 01:48:08;;;;;;;15.57;7.40;;;;;;;5.71;100.00;96674.06;5035411;28;20744;-61
2021/10/17 01:50:36;;;;;;;16.42;8.82;;;;;;;5.77;100.00;96673.63;5048650;28;20072;-60
2021/10/17 01:53:05;;;;;;;10.88;7.63;;;;;;;6.21;100.00;96666.16;5048612;28;20080;-60
2021/10/17 01:55:35;;;;;;;10.30;6.88;;;;;;;6.09;100.00;96670.50;5031102;28;20087;-59
2021/10/17 01:58:03;;;;;;;13.40;7.18;;;;;;;6.32;100.00;96672.28;5020669;28;20073;-59
2021/10/17 02:00:32;;;;;;;13.80;8.23;;;;;;;6.54;100.00;96665.47;5030764;28;20069;-60
2021/10/17 02:03:00;;;;;;;10.77;7.20;;;;;;;6.62;100.00;96663.09;5049569;28;20080;-60
2021/10/17 02:05:29;;;;;;;8.43;7.07;;;;;;;6.70;100.00;96667.75;5047204;28;20567;-59
2021/10/17 02:07:57;;;;;;;13.73;7.82;;;;;;;6.60;100.00;96665.81;5038317;28;20076;-60
2021/10/17 02:10:25;;;;;;;12.45;7.85;;;;;;;6.22;100.00;96659.97;5042811;28;20069;-60
2021/10/17 02:12:55;;;;;;;15.52;8.07;;;;;;;6.24;100.00;96658.09;5044484;28;20520;-59
2021/10/17 02:15:24;;;;;;;14.90;8.63;;;;;;;6.33;100.00;96665.25;5040545;28;20059;-61
2021/10/17 02:17:52;;;;;;;15.50;8.18;;;;;;;6.54;100.00;96660.22;5048613;28;20076;-59
2021/10/17 02:20:21;;;;;;;20.92;8.60;;;;;;;6.24;100.00;96663.31;5037041;28;20480;-58
2021/10/17 02:22:49;;;;;;;17.52;8.77;;;;;;;6.34;100.00;96662.53;5039587;28;20088;-60
2021/10/17 02:25:18;;;;;;;20.50;8.63;;;;;;;6.20;100.00;96670.56;5041174;28;20088;-59
2021/10/17 02:27:46;;;;;;;22.42;8.85;;;;;;;6.44;100.00;96665.31;5049388;28;20045;-57
2021/10/17 02:30:16;;;;;;;17.63;8.15;;;;;;;6.38;100.00;96668.38;5045649;28;20114;-61
2021/10/17 02:32:44;;;;;;;17.40;8.65;;;;;;;6.15;100.00;96672.69;5046165;28;20080;-60
2021/10/17 02:35:13;;;;;;;14.38;7.95;;;;;;;6.27;100.00;96666.56;5044143;28;20067;-60
2021/10/17 02:37:42;;;;;;;15.15;7.93;;;;;;;6.28;100.00;96670.84;5028930;28;20521;-58
2021/10/17 02:40:11;;;;;;;16.27;8.13;;;;;;;6.48;100.00;96672.00;5024442;28;20076;-60
2021/10/17 02:42:39;;;;;;;12.15;8.43;;;;;;;6.62;100.00;96669.16;5024827;28;20080;-60
2021/10/17 02:45:09;;;;;;;18.85;8.73;;;;;;;6.81;100.00;96667.78;5046450;28;20084;-60
2021/10/17 02:47:39;;;;;;;14.38;8.68;;;;;;;6.89;100.00;96671.50;5049258;28;20069;-59
2021/10/17 02:50:08;;;;;;;27.73;8.83;;;;;;;6.47;100.00;96672.94;5046673;28;20076;-59
2021/10/17 02:52:36;;;;;;;14.13;8.45;;;;;;;6.53;100.00;96677.69;5042494;28;20072;-59
2021/10/17 02:55:05;;;;;;;26.20;9.15;;;;;;;6.66;100.00;96670.59;5032080;28;20171;-60
2021/10/17 02:57:34;;;;;;;25.65;9.35;;;;;;;6.50;100.00;96674.47;5039297;28;20061;-61
2021/10/17 03:00:03;;;;;;;21.27;9.02;;;;;;;6.05;100.00;96674.28;5044788;28;20085;-59
2021/10/17 03:02:31;;;;;;;16.88;8.48;;;;;;;6.39;100.00;96670.88;5024138;28;20069;-59
2021/10/17 03:05:04;;;;;;;17.85;8.73;;;;;;;6.57;100.00;96671.31;5042567;28;20077;-61
2021/10/17 03:07:34;;;;;;;23.13;8.73;;;;;;;6.17;100.00;96673.41;5033149;28;20073;-60
2021/10/17 03:10:03;;;;;;;16.58;8.38;;;;;;;6.65;100.00;96678.59;5024195;28;20061;-58
2021/10/17 03:12:31;;;;;;;28.08;9.25;;;;;;;6.87;100.00;96669.94;5040899;28;20453;-60
2021/10/17 03:15:00;;;;;;;31.98;9.30;;;;;;;6.70;100.00;96667.75;5039993;28;20076;-60
2021/10/17 03:17:28;;;;;;;16.30;9.63;;;;;;;6.46;100.00;96676.50;5046448;28;20540;-60
2021/10/17 03:19:57;;;;;;;29.23;9.63;;;;;;;6.35;100.00;96673.84;5047388;28;20080;-56
2021/10/17 03:22:26;;;;;;;29.27;9.52;;;;;;;6.74;100.00;96672.63;5040271;28;20076;-57
2021/10/17 03:24:55;;;;;;;29.10;9.88;;;;;;;6.65;100.00;96666.31;5040008;28;20068;-60
2021/10/17 03:27:23;;;;;;;21.40;9.07;;;;;;;6.77;100.00;96669.78;5028914;28;20104;-60
2021/10/17 03:29:52;;;;;;;23.42;9.07;;;;;;;6.67;100.00;96674.06;5048174;28;20431;-60
2021/10/17 03:32:20;;;;;;;10.85;8.75;;;;;;;6.82;100.00;96670.28;5030904;28;20077;-61
2021/10/17 03:34:49;;;;;;;19.10;9.05;;;;;;;7.14;100.00;96667.00;5025660;28;20593;-58
2021/10/17 03:37:17;;;;;;;21.40;9.75;;;;;;;6.86;100.00;96668.28;5013082;28;20095;-60
2021/10/17 03:39:47;;;;;;;26.67;9.98;;;;;;;6.29;100.00;96669.88;5029790;28;20073;-60
2021/10/17 03:42:15;;;;;;;26.05;8.98;;;;;;;6.49;100.00;96673.66;5036880;28;20472;-60
2021/10/17 03:44:44;;;;;;;22.42;9.30;;;;;;;6.29;100.00;96669.88;5054933;28;20089;-60
2021/10/17 03:47:12;;;;;;;24.23;9.45;;;;;;;5.70;100.00;96678.47;5049690;28;20064;-61
2021/10/17 03:49:41;;;;;;;34.05;9.32;;;;;;;6.20;100.00;96675.81;5049798;28;20524;-58
2021/10/17 03:52:09;;;;;;;26.40;8.93;;;;;;;6.27;100.00;96674.41;5054870;28;20067;-59
2021/10/17 03:54:41;;;;;;;46.03;9.55;;;;;;;6.38;100.00;96676.22;5044968;28;20103;-60
2021/10/17 03:57:11;;;;;;;38.78;9.80;;;;;;;6.64;100.00;96677.75;5028678;28;20092;-58
2021/10/17 03:59:39;;;;;;;27.33;10.23;;;;;;;6.65;100.00;96683.84;5034822;28;20559;-59
2021/10/17 04:02:07;;;;;;;51.25;10.80;;;;;;;6.40;100.00;96683.03;5024699;28;20065;-58
2021/10/17 04:04:36;;;;;;;42.95;11.30;;;;;;;6.42;100.00;96680.28;5029301;28;20088;-61
2021/10/17 04:07:06;;;;;;;35.22;10.18;;;;;;;6.54;100.00;96668.09;5044929;28;20065;-59
2021/10/17 04:09:34;;;;;;;39.20;11.57;;;;;;;6.49;100.00;96665.78;5050664;28;20067;-60
2021/10/17 04:12:02;;;;;;;38.35;10.85;;;;;;;6.81;100.00;96665.16;5046081;28;20089;-59
2021/10/17 04:14:32;;;;;;;41.10;10.68;;;;;;;7.01;100.00;96663.63;5030504;28;20548;-59
2021/10/17 04:17:01;;;;;;;51.13;11.30;;;;;;;6.57;100.00;96667.84;5048212;28;20080;-59
2021/10/17 04:19:29;;;;;;;64.18;11.60;;;;;;;6.96;100.00;96664.00;5052589;28;20483;-60
2021/10/17 04:21:57;;;;;;;68.50;11.65;;;;;;;6.77;100.00;96668.97;5042163;28;20081;-58
2021/10/17 04:24:27;;;;;;;80.82;12.18;;;;;;;6.84;100.00;96667.53;5025731;28;20096;-59
2021/10/17 04:26:55;;;;;;;78.68;12.27;;;;;;;6.58;100.00;96665.13;5032795;28;20089;-60
2021/10/17 04:29:24;;;;;;;55.13;11.77;;;;;;;6.99;100.00;96662.94;5045403;28;20073;-59
2021/10/17 04:31:53;;;;;;;30.70;10.63;;;;;;;7.36;100.00;96669.63;5033755;28;20062;-60
2021/10/17 04:34:22;;;;;;;40.30;11.93;;;;;;;7.58;100.00;96667.94;5035164;28;20064;-59
2021/10/17 04:36:50;;;;;;;18.42;9.73;;;;;;;7.71;100.00;96665.16;5051955;28;20521;-59
2021/10/17 04:39:19;;;;;;;26.70;9.35;;;;;;;7.54;100.00;96667.34;5053683;28;20077;-60
2021/10/17 04:41:47;;;;;;;25.25;9.25;;;;;;;7.60;100.00;96660.75;5054853;28;20484;-58
2021/10/17 04:44:16;;;;;;;45.92;9.10;;;;;;;7.55;100.00;96655.06;5052027;28;20076;-59
2021/10/17 04:46:44;;;;;;;18.00;10.30;;;;;;;7.64;100.00;96654.34;5037053;28;20069;-60
2021/10/17 04:49:14;;;;;;;31.65;10.25;;;;;;;7.30;100.00;96654.38;5037821;28;20470;-60
2021/10/17 04:51:42;;;;;;;28.95;11.32;;;;;;;7.50;100.00;96651.94;5026797;28;20563;-61
2021/10/17 04:54:11;;;;;;;18.45;10.50;;;;;;;7.63;100.00;96643.94;5045972;28;20481;-59
2021/10/17 04:56:39;;;;;;;36.85;10.90;;;;;;;7.81;100.00;96643.34;5049501;28;20115;-60
2021/10/17 04:59:08;;;;;;;30.90;11.48;;;;;;;7.90;100.00;96641.75;5025793;28;20080;-60
2021/10/17 05:01:37;;;;;;;28.10;11.65;;;;;;;7.93;100.00;96638.03;5022136;28;20065;-59
2021/10/17 05:04:06;;;;;;;29.80;12.40;;;;;;;8.05;100.00;96642.28;5022405;28;20065;-60
2021/10/17 05:06:36;;;;;;;44.45;13.43;;;;;;;8.02;100.00;96648.66;5023753;28;20061;-61
2021/10/17 05:09:04;;;;;;;39.07;12.30;;;;;;;7.82;100.00;96647.63;5034265;28;20096;-61
2021/10/17 05:11:33;;;;;;;40.67;12.73;;;;;;;8.00;100.00;96649.72;5046338;28;20507;-60
2021/10/17 05:14:01;;;;;;;26.60;12.20;;;;;;;7.75;100.00;96646.44;5048139;28;20068;-58
2021/10/17 05:16:30;;;;;;;23.63;12.00;;;;;;;7.40;100.00;96654.47;5024691;28;20073;-59
2021/10/17 05:18:58;;;;;;;39.45;13.43;;;;;;;7.43;100.00;96654.22;5030397;28;20076;-60
2021/10/17 05:21:28;;;;;;;60.53;14.25;;;;;;;6.96;100.00;96650.88;5049390;28;20191;-59
2021/10/17 05:23:58;;;;;;;47.08;13.57;;;;;;;7.08;100.00;96654.34;5043609;28;20088;-61
2021/10/17 05:26:26;;;;;;;55.70;14.88;;;;;;;7.46;100.00;96653.16;5043733;28;20532;-59
2021/10/17 05:28:54;;;;;;;65.47;14.93;;;;;;;7.23;100.00;96649.72;5027180;28;20075;-61
2021/10/17 05:31:23;;;;;;;42.90;14.27;;;;;;;7.37;100.00;96654.72;5025980;28;20066;-59
2021/10/17 05:33:52;;;;;;;54.63;15.80;;;;;;;7.05;100.00;96650.16;5021306;28;20074;-61
2021/10/17 05:36:20;;;;;;;53.17;15.27;;;;;;;7.08;100.00;96649.09;5021197;28;20085;-61
2021/10/17 05:38:49;;;;;;;32.85;13.65;;;;;;;6.59;100.00;96655.47;5029571;28;20088;-60
2021/10/17 05:41:22;;;;;;;34.38;13.57;;;;;;;6.80;100.00;96661.69;5045422;28;20069;-59
2021/10/17 05:43:50;;;;;;;39.97;12.70;;;;;;;6.54;100.00;96665.47;5039610;28;20529;-60
2021/10/17 05:46:19;;;;;;;62.58;14.00;;;;;;;6.72;100.00;96663.25;5031770;28;20745;-61
2021/10/17 05:48:47;;;;;;;47.67;14.50;;;;;;;6.67;100.00;96668.81;5022536;28;20069;-60
2021/10/17 05:51:16;;;;;;;36.03;12.35;;;;;;;6.28;100.00;96668.22;5020322;28;20102;-60
2021/10/17 05:53:44;;;;;;;44.47;12.98;;;;;;;6.80;100.00;96668.72;5022819;28;20078;-58
2021/10/17 05:56:12;;;;;;;40.08;11.85;;;;;;;6.97;100.00;96670.06;5045692;28;20622;-61
2021/10/17 05:58:42;;;;;;;35.95;11.10;;;;;;;6.78;100.00;96671.47;5021804;28;20624;-60
2021/10/17 06:01:11;;;;;;;45.08;12.00;;;;;;;6.88;100.00;96682.94;5025087;28;20536;-61
2021/10/17 06:03:39;;;;;;;31.45;11.57;;;;;;;6.52;100.00;96683.91;5036469;28;20057;-61
2021/10/17 06:06:08;;;;;;;54.60;11.95;;;;;;;6.98;100.00;96683.06;5039855;28;20110;-60
2021/10/17 06:08:37;;;;;;;48.47;12.70;;;;;;;7.05;100.00;96684.25;5034088;28;20487;-60
2021/10/17 06:11:05;;;;;;;55.60;13.00;;;;;;;6.64;100.00;96690.00;5021858;28;20124;-61
2021/10/17 06:13:35;;;;;;;42.88;11.35;;;;;;;6.94;100.00;96689.47;5043700;28;20071;-61
2021/10/17 06:16:05;;;;;;;40.83;10.97;;;;;;;6.69;100.00;96689.69;5035116;28;20103;-61
2021/10/17 06:18:34;;;;;;;34.78;10.25;;;;;;;6.33;100.00;96702.78;5019965;28;20073;-62
2021/10/17 06:21:02;;;;;;;37.83;11.30;;;;;;;6.97;100.00;96686.63;5027617;28;20081;-62
2021/10/17 06:23:30;;;;;;;38.85;10.80;;;;;;;6.89;100.00;96695.09;5028363;28;20069;-61
2021/10/17 06:25:59;;;;;;;33.45;9.93;;;;;;;6.65;100.00;96692.53;5023727;28;20065;-62
2021/10/17 06:28:27;;;;;;;37.80;10.25;;;;;;;6.82;100.00;96695.66;5039611;28;20064;-62
2021/10/17 06:30:56;;;;;;;33.15;10.48;;;;;;;7.11;100.00;96701.31;5038729;28;20076;-62
2021/10/17 06:33:26;;;;;;;40.38;11.30;;;;;;;6.71;100.00;96706.09;5028711;28;20103;-61
2021/10/17 06:35:54;;;;;;;27.47;10.77;;;;;;;7.08;100.00;96704.16;5049864;28;20088;-61
2021/10/17 06:38:23;;;;;;;30.50;9.88;;;;;;;7.19;100.00;96709.44;5046523;28;20502;-61
2021/10/17 06:40:52;;;;;;;40.08;10.00;;;;;;;7.16;100.00;96709.69;5023981;28;20427;-62
2021/10/17 06:43:20;;;;;;;21.25;9.85;;;;;;;7.11;100.00;96711.81;5023689;28;20183;-62
2021/10/17 06:45:49;;;;;;;24.08;10.45;;;;;;;6.96;100.00;96713.81;5032195;28;20071;-61
2021/10/17 06:48:17;;;;;;;34.15;9.98;;;;;;;7.20;100.00;96713.72;5040737;28;20088;-61
2021/10/17 06:50:47;;;;;;;25.20;10.00;;;;;;;7.47;100.00;96721.28;5015979;28;20062;-60
2021/10/17 06:53:16;;;;;;;28.35;10.65;;;;;;;7.47;100.00;96717.81;5025475;28;20072;-62
2021/10/17 06:55:45;;;;;;;36.50;10.13;;;;;;;7.45;100.00;96717.91;5021910;28;20066;-61
2021/10/17 06:58:16;;;;;;;31.70;9.68;;;;;;;7.59;100.00;96720.28;5019203;28;20069;-61
2021/10/17 07:00:45;;;;;;;19.35;9.35;;;;;;;7.46;100.00;96718.75;5025770;28;20079;-61
2021/10/17 07:03:13;;;;;;;20.40;9.85;;;;;;;7.48;100.00;96720.31;5039657;28;20558;-61
2021/10/17 07:05:42;;;;;;;23.48;8.95;;;;;;;7.82;100.00;96721.13;5042481;28;20060;-61
2021/10/17 07:08:12;;;;;;;21.95;9.35;;;;;;;8.15;100.00;96718.56;5044574;28;20064;-60
2021/10/17 07:10:40;;;;;;;25.20;10.30;;;;;;;8.86;100.00;96716.28;5044635;28;20053;-60
2021/10/17 07:13:09;;;;;;;26.35;9.80;;;;;;;8.85;100.00;96720.72;5024289;28;20545;-61
2021/10/17 07:15:37;;;;;;;22.58;10.85;;;;;;;8.45;100.00;96725.78;5021464;28;20081;-57
2021/10/17 07:18:06;;;;;;;15.90;9.85;;;;;;;9.03;100.00;96718.34;5027141;28;20080;-60
2021/10/17 07:20:34;;;;;;;18.60;9.68;;;;;;;9.40;100.00;96720.50;5015936;28;20069;-61
2021/10/17 07:23:04;;;;;;;27.45;9.18;;;;;;;9.34;100.00;96719.22;5019548;28;20065;-60
2021/10/17 07:25:34;;;;;;;23.70;9.25;;;;;;;8.80;100.00;96721.09;5037186;28;20072;-60
2021/10/17 07:28:03;;;;;;;27.52;9.82;;;;;;;8.28;100.00;96724.50;5034871;28;20064;-61
2021/10/17 07:30:31;;;;;;;26.50;10.32;;;;;;;8.88;100.00;96724.88;5021865;28;20149;-61
2021/10/17 07:33:03;;;;;;;53.63;10.68;;;;;;;9.14;100.00;96722.72;5024400;28;20069;-61
2021/10/17 07:35:32;;;;;;;31.27;10.32;;;;;;;8.83;100.00;96725.25;5039850;28;20550;-61
2021/10/17 07:38:00;;;;;;;28.38;9.70;;;;;;;8.58;100.00;96731.72;5029073;28;20061;-61
2021/10/17 07:40:29;;;;;;;44.22;10.18;;;;;;;8.88;100.00;96724.88;5027805;28;20079;-60
2021/10/17 07:42:59;;;;;;;33.08;10.50;;;;;;;9.03;100.00;96728.88;5030584;28;20531;-61
2021/10/17 07:45:32;;;;;;;113.55;12.80;;;;;;;9.30;100.00;96730.16;5045595;28;20513;-61
2021/10/17 07:48:00;;;;;;;23.60;10.73;;;;;;;9.67;100.00;96733.94;5026758;28;20088;-61
2021/10/17 07:50:29;;;;;;;36.17;10.90;;;;;;;9.95;100.00;96734.19;5017646;28;20077;-61
2021/10/17 07:52:57;;;;;;;32.83;11.10;;;;;;;10.03;100.00;96733.50;5032265;28;20426;-61
2021/10/17 07:55:26;;;;;;;45.90;9.80;;;;;;;9.44;100.00;96733.28;5030272;28;20112;-61
2021/10/17 07:57:55;;;;;;;44.90;10.48;;;;;;;9.07;100.00;96742.59;5022144;28;20095;-62
2021/10/17 08:00:26;;;;;;;30.17;10.18;;;;;;;8.97;100.00;96743.34;5034466;28;20131;-61
2021/10/17 08:02:55;;;;;;;57.28;11.68;;;;;;;9.88;100.00;96739.16;5036302;28;20061;-60
2021/10/17 08:05:24;;;;;;;24.70;10.50;;;;;;;9.57;100.00;96743.59;5034449;28;20072;-61
2021/10/17 08:07:54;;;;;;;26.13;12.27;;;;;;;10.60;100.00;96740.72;5026197;28;20092;-60
2021/10/17 08:10:22;;;;;;;31.63;13.25;;;;;;;10.85;100.00;96733.22;5022055;28;20050;-60
2021/10/17 08:12:51;;;;;;;27.70;11.85;;;;;;;11.23;100.00;96737.63;5036140;28;20080;-60
2021/10/17 08:15:19;;;;;;;33.22;12.15;;;;;;;11.26;100.00;96731.22;5050099;28;20072;-60
2021/10/17 08:17:49;;;;;;;22.15;12.30;;;;;;;10.67;100.00;96733.91;5043382;28;20093;-62
2021/10/17 08:20:18;;;;;;;36.10;13.02;;;;;;;10.55;100.00;96735.00;5038113;28;20550;-61
2021/10/17 08:22:46;;;;;;;70.22;12.95;;;;;;;9.96;100.00;96749.00;5033542;28;20080;-59
2021/10/17 08:25:15;;;;;;;30.02;12.27;;;;;;;10.95;100.00;96734.06;5037342;28;20071;-61
2021/10/17 08:27:43;;;;;;;26.88;12.38;;;;;;;10.91;100.00;96737.94;5048526;28;20064;-60
2021/10/17 08:30:12;;;;;;;33.97;13.10;;;;;;;11.08;100.00;96742.53;5051134;28;20056;-61
2021/10/17 08:32:41;;;;;;;38.33;13.10;;;;;;;10.63;100.00;96742.22;5040694;28;20080;-61
2021/10/17 08:35:12;;;;;;;42.83;12.65;;;;;;;10.39;100.00;96737.34;5042309;28;20071;-61
2021/10/17 08:37:40;;;;;;;;;;;;;;;11.44;100.00;96741.88;5031604;28;20068;-61
2021/10/17 08:40:10;;;;;;;32.25;12.70;;;;;;;11.21;100.00;96741.38;5030692;28;19960;-60
2021/10/17 08:42:38;;;;;;;24.75;13.65;;;;;;;11.53;100.00;96746.31;5047226;28;20072;-60
2021/10/17 08:45:08;;;;;;;33.05;12.52;;;;;;;11.42;100.00;96749.94;5053826;28;20081;-60
2021/10/17 08:47:37;;;;;;;17.05;11.80;;;;;;;12.27;100.00;96751.59;5047492;28;20084;-60
2021/10/17 08:50:07;;;;;;;15.50;11.75;;;;;;;11.97;100.00;96755.34;5053718;28;20061;-61
2021/10/17 08:52:37;;;;;;;18.00;11.68;;;;;;;12.32;100.00;96754.63;5043310;28;20106;-60
2021/10/17 08:55:07;;;;;;;25.40;12.38;;;;;;;12.47;100.00;96749.66;5046125;28;20081;-60
2021/10/17 08:57:36;;;;;;;20.17;12.32;;;;;;;12.56;100.00;96748.78;5037254;28;20057;-60
2021/10/17 09:00:25;;;;;;;24.65;12.00;;;;;;;12.86;100.00;96748.53;5044847;28;20085;-61
2021/10/17 09:02:53;;;;;;;18.80;12.10;;;;;;;12.89;100.00;96749.06;5046303;28;20107;-60
2021/10/17 09:05:33;;;;;;;21.00;14.02;;;;;;;13.22;100.00;96750.19;5049357;28;20064;-61
2021/10/17 09:08:03;;;;;;;21.73;11.52;;;;;;;12.29;100.00;96754.09;5049188;28;20068;-60
2021/10/17 09:10:32;;;;;;;18.02;13.02;;;;;;;13.12;100.00;96748.59;5049204;28;20057;-62
2021/10/17 09:13:09;;;;;;;17.88;11.25;;;;;;;12.77;100.00;96743.19;5036621;28;20069;-60
2021/10/17 09:15:38;;;;;;;14.43;11.70;;;;;;;12.31;100.00;96746.81;5028887;28;20115;-60
2021/10/17 09:18:15;;;;;;;13.70;11.63;;;;;;;12.23;100.00;96752.88;5047837;28;20496;-61
2021/10/17 09:20:59;;;;;;;20.83;12.48;;;;;;;12.05;100.00;96744.88;5038338;28;20139;-62
2021/10/17 09:23:41;;;;;;;18.55;12.38;;;;;;;12.29;100.00;96748.81;5036774;28;20073;-61
2021/10/17 09:26:18;;;;;;;15.77;12.13;;;;;;;12.87;100.00;96744.91;5027927;28;20069;-60
2021/10/17 09:28:47;;;;;;;15.75;12.98;;;;;;;12.71;100.00;96748.25;5035573;28;20059;-61
2021/10/17 09:31:17;;;;;;;21.65;13.85;;;;;;;12.44;100.00;96743.84;5047379;28;20072;-60
2021/10/17 09:33:49;;;;;;;22.65;13.07;;;;;;;12.16;100.00;96745.69;5047466;28;20083;-59
2021/10/17 09:36:29;;;;;;;16.58;12.98;;;;;;;11.83;100.00;96739.94;5050375;28;20076;-61
2021/10/17 09:39:09;;;;;;;22.43;14.20;;;;;;;12.59;100.00;96742.31;5051252;28;20099;-61
2021/10/17 09:41:48;;;;;;;26.55;17.55;;;;;;;12.95;100.00;96740.53;5042799;28;20503;-61
2021/10/17 09:44:16;;;;;;;20.17;15.40;;;;;;;12.89;100.00;96746.41;5048290;28;20067;-60
2021/10/17 09:47:01;;;;;;;22.42;15.45;;;;;;;12.29;100.00;96748.81;5028847;28;20061;-60
2021/10/17 09:49:29;;;;;;;21.63;14.68;;;;;;;11.90;100.00;96746.34;5030576;28;20068;-60
2021/10/17 09:52:13;;;;;;;22.25;15.10;;;;;;;11.94;100.00;96745.09;5037282;28;20079;-61
2021/10/17 09:54:45;;;;;;;27.08;16.08;;;;;;;13.20;100.00;96748.66;5044163;28;20061;-57
2021/10/17 09:57:13;;;;;;;26.58;18.13;;;;;;;13.77;100.00;96747.25;5011826;28;20084;-59
2021/10/17 09:59:42;;;;;;;25.75;17.25;;;;;;;13.91;100.00;96748.50;5042998;28;20073;-60
2021/10/17 10:02:12;;;;;;;27.92;17.75;;;;;;;13.74;100.00;96752.06;5026861;28;20073;-62
2021/10/17 10:04:41;;;;;;;27.45;18.00;;;;;;;13.72;100.00;96748.72;5045692;28;20056;-60
2021/10/17 10:07:12;;;;;;;29.00;19.15;;;;;;;13.73;100.00;96755.69;5042555;28;20080;-60
2021/10/17 10:09:40;;;;;;;31.33;21.08;;;;;;;13.68;100.00;96758.78;5049239;28;20085;-60
2021/10/17 10:12:11;;;;;;;40.97;21.33;;;;;;;12.96;100.00;96759.88;5038564;28;20084;-61
2021/10/17 10:14:41;;;;;;;32.72;20.58;;;;;;;12.62;100.00;96752.59;5049965;28;20087;-60
2021/10/17 10:17:10;;;;;;;33.13;21.15;;;;;;;13.53;100.00;96755.06;5041319;28;20096;-60
2021/10/17 10:19:39;;;;;;;32.63;21.23;;;;;;;13.88;100.00;96756.75;5037560;28;20061;-61
2021/10/17 10:22:08;;;;;;;32.35;21.65;;;;;;;14.32;100.00;96751.31;5034254;28;20076;-60
2021/10/17 10:24:36;;;;;;;37.75;23.85;;;;;;;14.43;100.00;96745.72;5033675;28;20069;-61
2021/10/17 10:27:07;;;;;;;42.67;25.00;;;;;;;14.49;100.00;96742.41;5023675;28;20077;-60
2021/10/17 10:29:36;;;;;;;;;;;;;;;14.22;100.00;96747.97;5038584;28;21379;-59
2021/10/17 10:32:07;;;;;;;35.88;23.00;;;;;;;14.60;100.00;96741.31;5031597;28;19959;-60
2021/10/17 10:35:06;;;;;;;;;;;;;;;14.79;100.00;96745.47;5022068;28;20068;-60
2021/10/17 10:37:47;;;;;;;36.90;23.70;;;;;;;14.41;100.00;96738.88;5022827;28;19944;-59
2021/10/17 10:40:20;;;;;;;36.28;24.42;;;;;;;14.15;100.00;96747.78;5032717;28;20065;-60
2021/10/17 10:42:49;;;;;;;34.67;22.60;;;;;;;13.92;100.00;96738.72;5040236;28;20068;-61
2021/10/17 10:45:25;;;;;;;34.60;21.60;;;;;;;13.15;100.00;96741.19;5027557;28;20637;-61
2021/10/17 10:48:19;;;;;;;31.88;21.88;;;;;;;14.41;100.00;96738.88;5034546;28;20107;-60
2021/10/17 10:50:50;;;;;;;31.38;22.98;;;;;;;14.99;100.00;96726.59;5035967;28;21285;-59
2021/10/17 10:53:51;;;;;;;33.55;23.17;;;;;;;14.80;100.00;96733.88;5022022;28;20453;-60
2021/10/17 10:56:45;;;;;;;33.25;23.70;;;;;;;14.91;100.00;96720.28;5028366;28;20080;-59
2021/10/17 10:59:16;;;;;;;32.67;23.08;;;;;;;14.42;100.00;96724.66;5037965;28;20077;-60
2021/10/17 11:01:53;;;;;;;33.08;23.95;;;;;;;14.75;100.00;96716.78;5050155;28;20080;-60
2021/10/17 11:05:04;;;;;;;32.47;22.20;;;;;;;14.24;100.00;96724.75;5029569;28;20129;-61
2021/10/17 11:07:39;;;;;;;37.60;25.80;;;;;;;14.51;100.00;96718.38;5043747;28;20076;-61
2021/10/17 11:10:46;;;;;;;35.78;23.98;;;;;;;13.74;100.00;96713.13;5036325;28;20079;-61
2021/10/17 11:13:46;;;;;;;33.50;22.73;;;;;;;14.84;100.00;96711.31;5041143;28;20547;-59
2021/10/17 11:16:21;;;;;;;31.08;19.67;;;;;;;14.38;100.00;96716.19;4983069;28;20070;-60
2021/10/17 11:18:59;;;;;;;30.63;22.02;;;;;;;13.56;100.00;96715.00;5029951;28;20255;-59
2021/10/17 11:21:30;;;;;;;26.13;20.05;;;;;;;14.30;100.00;96713.50;5025951;28;20102;-59
2021/10/17 11:23:59;;;;;;;29.42;20.95;;;;;;;14.23;100.00;96715.97;5023797;28;20088;-59
2021/10/17 11:26:27;;;;;;;25.15;19.58;;;;;;;15.42;100.00;96707.63;5039367;28;20057;-59
2021/10/17 11:28:56;;;;;;;27.30;20.45;;;;;;;15.54;100.00;96700.13;5045811;28;20520;-61
2021/10/17 11:31:25;;;;;;;23.48;18.50;;;;;;;15.08;100.00;96697.19;5045296;28;20121;-60
2021/10/17 11:33:53;;;;;;;25.33;18.90;;;;;;;15.05;100.00;96702.03;5036722;28;20076;-61